createdAt,value
2022-10-15T00:01:07.284Z,76.53
2022-10-15T00:02:10.444Z,76.92
2022-10-15T00:03:14.854Z,76.94
2022-10-15T00:04:18.004Z,76.97
2022-10-15T00:05:21.729Z,77.03
2022-10-15T00:06:24.634Z,77.17
2022-10-15T00:07:28.982Z,77.29
2022-10-15T00:08:31.922Z,77.41
2022-10-15T00:09:34.869Z,77.43
2022-10-15T00:10:37.866Z,77.54
2022-10-15T00:11:40.769Z,77.48
2022-10-15T00:12:43.904Z,77.48
2022-10-15T00:13:48.894Z,77.57
2022-10-15T00:14:51.876Z,77.64
2022-10-15T00:15:54.756Z,77.53
2022-10-15T00:16:57.933Z,77.46
2022-10-15T00:18:00.781Z,77.42
2022-10-15T00:19:03.673Z,77.41
2022-10-15T00:20:08.302Z,77.42
2022-10-15T00:21:12.379Z,77.47
2022-10-15T00:22:15.326Z,77.47
2022-10-15T00:23:18.218Z,77.45
2022-10-15T00:24:22.423Z,77.55
2022-10-15T00:25:25.627Z,77.65
2022-10-15T00:26:29.187Z,77.70
2022-10-15T00:27:32.165Z,77.71
2022-10-15T00:28:35.102Z,77.75
2022-10-15T00:29:38.047Z,77.74
2022-10-15T00:30:41.161Z,77.77
2022-10-15T00:31:44.019Z,77.77
2022-10-15T00:32:48.622Z,77.64
2022-10-15T00:33:51.913Z,77.83
2022-10-15T00:34:54.739Z,77.86
2022-10-15T00:36:06.101Z,77.83
2022-10-15T00:37:09.098Z,77.87
2022-10-15T00:38:12.019Z,77.93
2022-10-15T00:39:15.146Z,77.88
2022-10-15T00:40:19.928Z,77.88
2022-10-15T00:41:25.064Z,77.90
2022-10-15T00:42:28.013Z,77.90
2022-10-15T00:43:40.007Z,77.93
2022-10-15T00:45:03.113Z,77.95
2022-10-15T00:46:12.696Z,78.05
2022-10-15T00:47:23.122Z,78.10
2022-10-15T00:48:26.760Z,78.11
2022-10-15T00:49:32.304Z,78.40
2022-10-15T00:50:35.639Z,78.55
2022-10-15T00:51:42.429Z,78.65
2022-10-15T00:53:03.575Z,78.79
2022-10-15T00:54:08.395Z,78.88
2022-10-15T00:55:14.302Z,78.97
2022-10-15T00:56:19.901Z,79.07
2022-10-15T00:57:23.337Z,79.13
2022-10-15T00:58:28.532Z,79.16
2022-10-15T00:59:32.635Z,79.20
2022-10-15T01:00:35.695Z,79.24
2022-10-15T01:01:38.656Z,79.30
2022-10-15T01:02:42.361Z,79.30
2022-10-15T01:03:45.438Z,79.32
2022-10-15T01:04:48.816Z,79.34
2022-10-15T01:05:52.504Z,79.40
2022-10-15T01:06:55.514Z,79.43
2022-10-15T01:07:58.345Z,79.44
2022-10-15T01:09:02.157Z,79.39
2022-10-15T01:10:06.374Z,79.41
2022-10-15T01:11:15.161Z,79.49
2022-10-15T01:12:27.458Z,79.53
2022-10-15T01:13:38.012Z,79.57
2022-10-15T01:14:54.562Z,79.59
2022-10-15T01:16:00.417Z,79.75
2022-10-15T01:17:11.945Z,79.71
2022-10-15T01:18:16.344Z,79.77
2022-10-15T01:19:33.995Z,79.93
2022-10-15T01:20:36.977Z,78.62
2022-10-15T01:21:47.393Z,78.75
2022-10-15T01:22:53.006Z,79.26
2022-10-15T01:24:14.077Z,79.73
2022-10-15T01:25:23.408Z,80.11
2022-10-15T01:26:26.425Z,79.45
2022-10-15T01:27:29.307Z,79.23
2022-10-15T01:28:47.451Z,79.55
2022-10-15T01:29:50.271Z,79.66
2022-10-15T01:30:59.901Z,79.86
2022-10-15T01:32:07.825Z,79.99
2022-10-15T01:33:13.449Z,79.92
2022-10-15T01:34:33.757Z,79.90
2022-10-15T01:35:44.414Z,79.92
2022-10-15T01:36:53.063Z,79.70
2022-10-15T01:38:00.408Z,79.54
2022-10-15T01:39:15.751Z,79.45
2022-10-15T01:40:18.646Z,79.60
2022-10-15T01:41:27.599Z,79.59
2022-10-15T01:42:34.487Z,79.39
2022-10-15T01:43:43.168Z,79.41
2022-10-15T01:45:08.791Z,79.28
2022-10-15T01:46:50.029Z,77.54
2022-10-15T01:47:58.308Z,78.14
2022-10-15T01:49:03.899Z,78.47
2022-10-15T01:50:08.272Z,78.64
2022-10-15T01:51:12.882Z,78.32
2022-10-15T01:52:18.826Z,78.31
2022-10-15T01:53:26.644Z,78.53
2022-10-15T01:54:30.548Z,78.68
2022-10-15T01:55:34.460Z,78.75
2022-10-15T01:56:38.917Z,78.81
2022-10-15T01:57:43.311Z,78.84
2022-10-15T01:58:48.109Z,78.86
2022-10-15T01:59:51.455Z,78.83
2022-10-15T02:00:56.056Z,78.80
2022-10-15T02:01:58.940Z,78.76
2022-10-15T02:03:02.707Z,78.70
2022-10-15T02:04:19.380Z,78.64
2022-10-15T02:05:29.878Z,78.58
2022-10-15T02:06:42.451Z,78.49
2022-10-15T02:07:58.843Z,78.42
2022-10-15T02:09:02.195Z,78.38
2022-10-15T02:10:05.063Z,78.37
2022-10-15T02:11:11.745Z,78.32
2022-10-15T02:12:32.772Z,78.23
2022-10-15T02:13:55.743Z,78.19
2022-10-15T02:15:01.722Z,78.16
2022-10-15T02:16:04.811Z,78.14
2022-10-15T02:17:11.387Z,78.11
2022-10-15T02:18:33.039Z,78.10
2022-10-15T02:19:43.166Z,78.07
2022-10-15T02:20:57.801Z,78.00
2022-10-15T02:22:09.220Z,77.96
2022-10-15T02:23:25.693Z,77.92
2022-10-15T02:24:39.236Z,77.83
2022-10-15T02:25:43.528Z,77.74
2022-10-15T02:26:47.107Z,77.68
2022-10-15T02:27:52.406Z,77.65
2022-10-15T02:28:57.529Z,77.58
2022-10-15T02:30:03.494Z,77.56
2022-10-15T02:32:50.153Z,77.52
2022-10-15T02:33:59.354Z,77.49
2022-10-15T02:35:02.605Z,77.48
2022-10-15T02:36:06.324Z,77.31
2022-10-15T02:37:10.194Z,77.35
2022-10-15T02:38:15.024Z,77.38
2022-10-15T02:39:20.764Z,77.40
2022-10-15T02:40:27.651Z,77.42
2022-10-15T02:41:30.813Z,77.41
2022-10-15T02:42:33.781Z,77.43
2022-10-15T02:43:37.415Z,77.43
2022-10-15T02:44:41.316Z,77.44
2022-10-15T02:45:44.284Z,77.38
2022-10-15T02:46:47.195Z,77.39
2022-10-15T02:47:50.994Z,77.42
2022-10-15T02:48:54.220Z,77.43
2022-10-15T02:49:57.175Z,77.41
2022-10-15T02:51:00.033Z,76.92
2022-10-15T02:52:03.425Z,77.09
2022-10-15T02:53:06.519Z,77.17
2022-10-15T02:54:10.274Z,77.16
2022-10-15T02:55:13.498Z,77.17
2022-10-15T02:56:17.167Z,77.18
2022-10-15T02:57:20.229Z,77.20
2022-10-15T02:58:23.279Z,77.18
2022-10-15T02:59:26.344Z,77.18
2022-10-15T03:00:29.619Z,77.20
2022-10-15T03:01:33.125Z,77.18
2022-10-15T03:02:36.272Z,77.15
2022-10-15T03:03:39.879Z,77.10
2022-10-15T03:04:42.849Z,76.42
2022-10-15T03:05:46.067Z,76.60
2022-10-15T03:06:49.141Z,76.79
2022-10-15T03:07:52.328Z,76.85
2022-10-15T03:08:55.683Z,76.14
2022-10-15T03:09:59.424Z,76.38
2022-10-15T03:11:03.397Z,76.66
2022-10-15T03:12:06.646Z,76.77
2022-10-15T03:13:09.623Z,75.30
2022-10-15T03:14:19.864Z,75.12
2022-10-15T03:15:22.836Z,75.97
2022-10-15T03:16:26.522Z,76.30
2022-10-15T03:17:29.442Z,76.42
2022-10-15T03:18:35.622Z,76.48
2022-10-15T03:19:41.243Z,76.51
2022-10-15T03:20:44.274Z,76.65
2022-10-15T03:21:49.395Z,76.39
2022-10-15T03:22:52.514Z,76.30
2022-10-15T03:23:55.788Z,76.58
2022-10-15T03:24:59.575Z,76.70
2022-10-15T03:26:03.544Z,76.79
2022-10-15T03:27:06.687Z,76.92
2022-10-15T03:28:09.660Z,76.91
2022-10-15T03:29:15.608Z,76.91
2022-10-15T03:30:22.684Z,76.95
2022-10-15T03:31:27.620Z,77.02
2022-10-15T03:32:34.310Z,77.05
2022-10-15T03:33:39.427Z,77.08
2022-10-15T03:34:42.561Z,77.13
2022-10-15T03:35:46.793Z,77.18
2022-10-15T03:36:49.854Z,77.21
2022-10-15T03:37:54.078Z,77.22
2022-10-15T03:38:57.145Z,77.29
2022-10-15T03:40:00.019Z,77.28
2022-10-15T03:41:03.751Z,77.09
2022-10-15T03:42:10.719Z,77.10
2022-10-15T03:43:23.557Z,77.29
2022-10-15T03:44:28.586Z,77.40
2022-10-15T03:45:41.714Z,77.49
2022-10-15T03:46:53.290Z,77.49
2022-10-15T03:47:58.147Z,77.46
2022-10-15T03:49:04.235Z,77.48
2022-10-15T03:50:07.608Z,77.52
2022-10-15T03:51:10.473Z,77.58
2022-10-15T03:52:13.764Z,77.45
2022-10-15T03:53:17.282Z,77.48
2022-10-15T03:54:20.739Z,77.61
2022-10-15T03:55:26.645Z,77.73
2022-10-15T03:56:29.878Z,77.75
2022-10-15T03:57:43.930Z,77.79
2022-10-15T03:58:47.093Z,77.81
2022-10-15T03:59:50.615Z,77.84
2022-10-15T04:00:53.759Z,77.87
2022-10-15T04:01:56.610Z,77.89
2022-10-15T04:02:59.545Z,77.90
2022-10-15T04:04:03.835Z,77.88
2022-10-15T04:05:06.940Z,77.89
2022-10-15T04:06:11.308Z,77.94
2022-10-15T04:07:14.692Z,77.85
2022-10-15T04:08:17.810Z,77.85
2022-10-15T04:09:20.739Z,77.95
2022-10-15T04:10:24.151Z,77.97
2022-10-15T04:11:26.968Z,77.98
2022-10-15T04:12:36.598Z,78.03
2022-10-15T04:13:39.597Z,78.01
2022-10-15T04:14:42.955Z,78.03
2022-10-15T04:15:48.398Z,78.00
2022-10-15T04:16:51.328Z,77.98
2022-10-15T04:17:57.054Z,77.96
2022-10-15T04:19:02.808Z,77.91
2022-10-15T04:20:06.591Z,77.89
2022-10-15T04:21:09.867Z,77.85
2022-10-15T04:22:13.493Z,77.86
2022-10-15T04:23:32.361Z,77.89
2022-10-15T04:24:53.577Z,77.91
2022-10-15T04:26:04.219Z,77.93
2022-10-15T04:27:07.702Z,77.95
2022-10-15T04:28:10.651Z,77.65
2022-10-15T04:29:13.943Z,77.59
2022-10-15T04:30:17.598Z,75.11
2022-10-15T04:31:25.765Z,75.38
2022-10-15T04:32:28.942Z,76.38
2022-10-15T04:33:31.868Z,76.78
2022-10-15T04:34:35.229Z,77.19
2022-10-15T04:35:38.825Z,77.59
2022-10-15T04:36:48.179Z,77.68
2022-10-15T04:37:57.510Z,77.90
2022-10-15T04:39:00.658Z,78.07
2022-10-15T04:40:23.784Z,78.08
2022-10-15T04:41:26.816Z,78.14
2022-10-15T04:42:39.829Z,78.25
2022-10-15T04:43:42.715Z,78.11
2022-10-15T04:44:46.469Z,75.29
2022-10-15T04:45:49.503Z,76.10
2022-10-15T04:46:54.760Z,76.97
2022-10-15T04:48:09.879Z,77.40
2022-10-15T04:49:12.949Z,77.68
2022-10-15T04:50:21.210Z,77.96
2022-10-15T04:51:51.374Z,78.09
2022-10-15T04:52:59.455Z,78.20
2022-10-15T04:54:03.213Z,78.33
2022-10-15T04:55:06.915Z,78.43
2022-10-15T04:56:18.931Z,78.39
2022-10-15T04:57:22.755Z,78.36
2022-10-15T04:58:26.165Z,78.37
2022-10-15T04:59:29.913Z,78.50
2022-10-15T05:00:53.270Z,78.42
2022-10-15T05:02:04.769Z,78.43
2022-10-15T05:03:07.647Z,78.47
2022-10-15T05:04:37.276Z,78.50
2022-10-15T05:05:45.171Z,78.53
2022-10-15T05:06:48.281Z,78.55
2022-10-15T05:07:54.231Z,78.55
2022-10-15T05:08:57.956Z,78.55
2022-10-15T05:10:04.551Z,78.49
2022-10-15T05:11:09.412Z,78.46
2022-10-15T05:12:12.673Z,78.48
2022-10-15T05:13:15.904Z,78.43
2022-10-15T05:14:19.612Z,78.37
2022-10-15T05:15:37.628Z,78.40
2022-10-15T05:16:44.114Z,78.46
2022-10-15T05:17:48.517Z,78.31
2022-10-15T05:18:57.584Z,78.23
2022-10-15T05:20:00.529Z,78.50
2022-10-15T05:21:04.597Z,78.51
2022-10-15T05:22:07.582Z,78.36
2022-10-15T05:23:13.116Z,78.59
2022-10-15T05:24:17.446Z,78.80
2022-10-15T05:25:31.165Z,78.73
2022-10-15T05:26:34.278Z,79.03
2022-10-15T05:27:37.615Z,79.18
2022-10-15T05:28:41.471Z,79.21
2022-10-15T05:29:44.664Z,79.21
2022-10-15T05:30:47.530Z,79.25
2022-10-15T05:31:50.702Z,79.33
2022-10-15T05:32:56.383Z,79.45
2022-10-15T05:33:59.488Z,79.42
2022-10-15T05:35:08.801Z,79.58
2022-10-15T05:36:43.753Z,79.57
2022-10-15T05:37:46.678Z,79.64
2022-10-15T05:38:54.147Z,79.71
2022-10-15T05:39:57.168Z,79.75
2022-10-15T05:41:01.477Z,79.76
2022-10-15T05:42:04.513Z,79.85
2022-10-15T05:43:16.213Z,79.82
2022-10-15T05:45:40.383Z,79.82
2022-10-15T05:46:43.368Z,79.79
2022-10-15T05:47:48.074Z,79.83
2022-10-15T05:48:54.314Z,79.79
2022-10-15T05:49:57.293Z,79.76
2022-10-15T05:51:05.097Z,79.57
2022-10-15T05:52:08.177Z,79.36
2022-10-15T05:53:31.027Z,79.85
2022-10-15T05:54:40.395Z,79.79
2022-10-15T05:55:43.276Z,79.85
2022-10-15T05:56:46.256Z,79.97
2022-10-15T05:57:49.072Z,80.02
2022-10-15T05:58:51.943Z,80.05
2022-10-15T05:59:58.219Z,80.19
2022-10-15T06:01:02.551Z,80.18
2022-10-15T06:02:08.753Z,80.16
2022-10-15T06:03:13.261Z,80.18
2022-10-15T06:04:17.069Z,80.09
2022-10-15T06:05:20.283Z,79.90
2022-10-15T06:06:24.078Z,79.73
2022-10-15T06:07:27.785Z,80.20
2022-10-15T06:08:31.048Z,80.24
2022-10-15T06:09:34.262Z,80.16
2022-10-15T06:10:37.972Z,80.39
2022-10-15T06:11:40.876Z,80.50
2022-10-15T06:12:48.400Z,80.45
2022-10-15T06:13:51.272Z,80.50
2022-10-15T06:14:54.089Z,80.46
2022-10-15T06:15:57.218Z,80.49
2022-10-15T06:17:00.056Z,80.49
2022-10-15T06:18:03.188Z,80.50
2022-10-15T06:19:07.396Z,80.46
2022-10-15T06:20:10.744Z,80.34
2022-10-15T06:21:14.065Z,80.18
2022-10-15T06:22:16.972Z,80.29
2022-10-15T06:23:20.024Z,80.14
2022-10-15T06:24:38.365Z,80.10
2022-10-15T06:25:43.815Z,79.94
2022-10-15T06:26:47.062Z,79.90
2022-10-15T06:27:49.888Z,79.98
2022-10-15T06:28:52.859Z,80.10
2022-10-15T06:29:55.974Z,80.08
2022-10-15T06:30:59.958Z,79.94
2022-10-15T06:32:10.328Z,79.88
2022-10-15T06:33:17.178Z,79.77
2022-10-15T06:34:20.180Z,79.55
2022-10-15T06:35:23.592Z,79.48
2022-10-15T06:36:26.633Z,79.50
2022-10-15T06:37:29.937Z,79.48
2022-10-15T06:38:34.750Z,79.30
2022-10-15T06:39:38.038Z,79.29
2022-10-15T06:40:40.944Z,79.26
2022-10-15T06:41:43.848Z,79.14
2022-10-15T06:42:46.812Z,78.85
2022-10-15T06:43:50.345Z,78.92
2022-10-15T06:44:53.504Z,78.94
2022-10-15T06:45:58.713Z,79.03
2022-10-15T06:47:01.788Z,79.06
2022-10-15T06:48:05.506Z,78.77
2022-10-15T06:49:08.766Z,78.71
2022-10-15T06:50:13.187Z,78.55
2022-10-15T06:51:16.321Z,78.43
2022-10-15T06:52:26.256Z,77.94
2022-10-15T06:53:29.553Z,77.55
2022-10-15T06:54:35.305Z,77.12
2022-10-15T06:55:40.333Z,77.44
2022-10-15T06:56:43.200Z,77.68
2022-10-15T06:57:46.042Z,77.60
2022-10-15T06:58:52.792Z,77.56
2022-10-15T06:59:55.619Z,77.69
2022-10-15T07:01:02.511Z,77.63
2022-10-15T07:02:05.406Z,77.53
2022-10-15T07:03:08.461Z,77.55
2022-10-15T07:04:11.433Z,77.53
2022-10-15T07:05:14.265Z,77.57
2022-10-15T07:06:17.874Z,77.83
2022-10-15T07:07:20.730Z,77.88
2022-10-15T07:08:24.963Z,77.81
2022-10-15T07:09:27.828Z,77.84
2022-10-15T07:10:30.697Z,77.83
2022-10-15T07:11:34.175Z,77.86
2022-10-15T07:12:37.002Z,77.86
2022-10-15T07:13:40.191Z,77.91
2022-10-15T07:14:43.569Z,78.04
2022-10-15T07:15:49.519Z,78.11
2022-10-15T07:16:52.694Z,77.91
2022-10-15T07:17:57.933Z,77.89
2022-10-15T07:19:00.971Z,77.91
2022-10-15T07:20:04.026Z,77.70
2022-10-15T07:21:07.867Z,77.60
2022-10-15T07:22:11.050Z,77.56
2022-10-15T07:23:14.174Z,77.57
2022-10-15T07:24:17.347Z,77.30
2022-10-15T07:25:20.222Z,77.13
2022-10-15T07:26:23.191Z,77.05
2022-10-15T07:27:26.504Z,77.06
2022-10-15T07:28:30.135Z,76.89
2022-10-15T07:29:33.394Z,76.87
2022-10-15T07:30:36.307Z,76.85
2022-10-15T07:31:39.125Z,76.36
2022-10-15T07:32:44.447Z,76.00
2022-10-15T07:33:49.459Z,75.72
2022-10-15T07:34:52.248Z,75.63
2022-10-15T07:35:55.178Z,75.17
2022-10-15T07:36:58.013Z,75.10
2022-10-15T07:38:02.280Z,74.71
2022-10-15T07:39:05.150Z,74.42
2022-10-15T07:40:08.934Z,74.42
2022-10-15T07:41:13.609Z,73.97
2022-10-15T07:42:18.184Z,73.64
2022-10-15T07:43:21.211Z,73.78
2022-10-15T07:44:23.976Z,73.65
2022-10-15T07:45:27.294Z,73.46
2022-10-15T07:46:30.257Z,73.50
2022-10-15T07:47:41.349Z,73.52
2022-10-15T07:48:44.383Z,73.18
2022-10-15T07:49:47.174Z,73.06
2022-10-15T07:51:00.342Z,72.89
2022-10-15T07:52:03.491Z,73.03
2022-10-15T07:53:06.330Z,72.68
2022-10-15T07:54:09.290Z,72.58
2022-10-15T07:55:12.446Z,72.39
2022-10-15T07:56:15.918Z,72.59
2022-10-15T07:57:18.834Z,72.60
2022-10-15T07:58:22.282Z,72.57
2022-10-15T07:59:25.176Z,72.61
2022-10-15T08:00:28.307Z,72.40
2022-10-15T08:01:31.134Z,72.38
2022-10-15T08:02:34.098Z,72.32
2022-10-15T08:03:37.655Z,72.15
2022-10-15T08:04:40.671Z,72.11
2022-10-15T08:05:43.676Z,72.27
2022-10-15T08:06:47.073Z,72.50
2022-10-15T08:07:49.939Z,72.71
2022-10-15T08:08:52.838Z,72.59
2022-10-15T08:09:55.877Z,72.67
2022-10-15T08:11:06.433Z,72.75
2022-10-15T08:12:09.652Z,72.56
2022-10-15T08:13:13.048Z,72.34
2022-10-15T08:14:16.131Z,72.42
2022-10-15T08:15:19.504Z,72.39
2022-10-15T08:16:22.419Z,72.44
2022-10-15T08:17:33.990Z,72.53
2022-10-15T08:18:37.998Z,72.54
2022-10-15T08:19:40.936Z,72.38
2022-10-15T08:20:44.124Z,72.17
2022-10-15T08:21:47.559Z,72.02
2022-10-15T08:22:50.694Z,72.11
2022-10-15T08:23:53.676Z,72.12
2022-10-15T08:25:02.040Z,72.18
2022-10-15T08:26:05.157Z,72.36
2022-10-15T08:27:08.161Z,72.18
2022-10-15T08:28:11.103Z,72.05
2022-10-15T08:29:14.127Z,72.10
2022-10-15T08:30:17.030Z,71.94
2022-10-15T08:31:20.100Z,71.82
2022-10-15T08:32:23.081Z,71.89
2022-10-15T08:33:26.074Z,71.94
2022-10-15T08:34:29.005Z,71.97
2022-10-15T08:35:35.424Z,71.72
2022-10-15T08:36:38.659Z,71.85
2022-10-15T08:37:41.428Z,72.01
2022-10-15T08:38:44.388Z,71.95
2022-10-15T08:39:47.356Z,71.86
2022-10-15T08:40:52.002Z,71.73
2022-10-15T08:41:57.227Z,71.77
2022-10-15T08:43:00.162Z,71.62
2022-10-15T08:44:03.483Z,71.48
2022-10-15T08:45:14.191Z,71.52
2022-10-15T08:46:25.085Z,71.13
2022-10-15T08:47:31.608Z,70.86
2022-10-15T08:48:38.001Z,70.77
2022-10-15T08:49:47.885Z,71.01
2022-10-15T08:51:03.652Z,71.23
2022-10-15T08:52:12.822Z,70.98
2022-10-15T08:53:19.098Z,70.94
2022-10-15T08:54:22.234Z,71.01
2022-10-15T08:55:29.163Z,70.44
2022-10-15T08:56:37.211Z,70.40
2022-10-15T08:57:52.781Z,70.37
2022-10-15T08:59:05.991Z,70.41
2022-10-15T09:00:14.077Z,70.59
2022-10-15T09:01:35.523Z,70.69
2022-10-15T09:02:58.864Z,70.80
2022-10-15T09:04:21.470Z,70.84
2022-10-15T09:05:36.614Z,70.69
2022-10-15T09:06:40.064Z,70.74
2022-10-15T09:07:48.695Z,70.72
2022-10-15T09:09:13.144Z,70.58
2022-10-15T09:10:27.905Z,70.72
2022-10-15T09:11:49.007Z,70.84
2022-10-15T09:13:03.617Z,70.47
2022-10-15T09:14:10.956Z,70.52
2022-10-15T09:15:16.112Z,70.60
2022-10-15T09:16:21.669Z,70.84
2022-10-15T09:17:27.197Z,70.64
2022-10-15T09:18:32.324Z,70.41
2022-10-15T09:19:37.586Z,70.10
2022-10-15T09:20:41.852Z,70.15
2022-10-15T09:21:45.803Z,70.07
2022-10-15T09:22:52.208Z,70.16
2022-10-15T09:23:57.058Z,70.22
2022-10-15T09:25:04.579Z,70.12
2022-10-15T09:26:13.353Z,69.86
2022-10-15T09:27:34.079Z,69.92
2022-10-15T09:28:44.801Z,70.06
2022-10-15T09:29:54.098Z,69.77
2022-10-15T09:30:57.900Z,69.60
2022-10-15T09:32:19.259Z,69.36
2022-10-15T09:33:45.333Z,69.20
2022-10-15T09:35:01.916Z,68.91
2022-10-15T09:36:04.754Z,69.05
2022-10-15T09:37:29.691Z,69.34
2022-10-15T09:38:42.677Z,69.21
2022-10-15T09:40:02.902Z,68.74
2022-10-15T09:41:18.726Z,68.46
2022-10-15T09:42:25.009Z,68.29
2022-10-15T09:43:35.406Z,68.34
2022-10-15T09:44:40.381Z,68.40
2022-10-15T09:45:43.211Z,68.30
2022-10-15T09:46:47.012Z,68.52
2022-10-15T09:47:50.279Z,68.19
2022-10-15T09:49:01.946Z,67.98
2022-10-15T09:50:06.884Z,67.91
2022-10-15T09:51:24.513Z,67.24
2022-10-15T09:52:27.417Z,66.98
2022-10-15T09:53:47.763Z,67.16
2022-10-15T09:55:09.413Z,67.21
2022-10-15T09:56:18.967Z,67.00
2022-10-15T09:57:23.693Z,67.09
2022-10-15T09:58:30.170Z,67.37
2022-10-15T09:59:33.048Z,67.40
2022-10-15T10:00:58.287Z,67.45
2022-10-15T10:02:03.776Z,67.05
2022-10-15T10:03:08.109Z,66.85
2022-10-15T10:04:14.226Z,66.87
2022-10-15T10:05:20.893Z,66.51
2022-10-15T10:06:24.678Z,66.35
2022-10-15T10:07:35.223Z,65.61
2022-10-15T10:10:00.768Z,65.28
2022-10-15T10:11:05.023Z,64.94
2022-10-15T10:12:16.589Z,64.87
2022-10-15T10:13:24.433Z,64.77
2022-10-15T10:14:36.188Z,65.00
2022-10-15T10:15:41.413Z,64.92
2022-10-15T10:17:03.035Z,65.24
2022-10-15T10:18:06.748Z,65.31
2022-10-15T10:19:14.279Z,65.42
2022-10-15T10:20:18.822Z,65.40
2022-10-15T10:21:31.485Z,65.40
2022-10-15T10:22:45.603Z,65.33
2022-10-15T10:23:50.623Z,65.44
2022-10-15T10:24:53.746Z,65.75
2022-10-15T10:25:57.873Z,65.77
2022-10-15T10:27:01.891Z,65.90
2022-10-15T10:28:13.754Z,66.12
2022-10-15T10:29:36.567Z,66.19
2022-10-15T10:30:43.818Z,66.29
2022-10-15T10:31:50.311Z,66.37
2022-10-15T10:33:02.210Z,66.64
2022-10-15T10:34:05.595Z,66.72
2022-10-15T10:35:19.583Z,66.55
2022-10-15T10:36:22.709Z,66.45
2022-10-15T10:37:26.456Z,66.45
2022-10-15T10:38:31.575Z,66.46
2022-10-15T10:39:36.483Z,66.60
2022-10-15T10:40:39.319Z,66.68
2022-10-15T10:41:48.711Z,66.75
2022-10-15T10:43:09.623Z,66.91
2022-10-15T10:44:19.236Z,67.09
2022-10-15T10:45:24.078Z,67.28
2022-10-15T10:46:27.136Z,67.49
2022-10-15T10:47:38.157Z,67.85
2022-10-15T10:48:45.902Z,67.69
2022-10-15T10:49:48.727Z,67.65
2022-10-15T10:51:09.011Z,67.80
2022-10-15T10:52:23.225Z,67.93
2022-10-15T10:53:26.648Z,68.00
2022-10-15T10:54:31.018Z,68.23
2022-10-15T10:55:38.286Z,68.37
2022-10-15T10:56:43.195Z,68.66
2022-10-15T10:57:49.135Z,68.80
2022-10-15T10:58:55.888Z,68.82
2022-10-15T10:59:58.868Z,68.86
2022-10-15T11:01:02.121Z,69.14
2022-10-15T11:02:10.688Z,69.32
2022-10-15T11:03:16.396Z,69.56
2022-10-15T11:04:32.345Z,69.73
2022-10-15T11:05:37.832Z,70.05
2022-10-15T11:06:59.392Z,69.82
2022-10-15T11:08:15.171Z,70.11
2022-10-15T11:09:41.905Z,69.89
2022-10-15T11:10:47.869Z,70.13
2022-10-15T11:12:08.729Z,70.33
2022-10-15T11:13:31.497Z,70.48
2022-10-15T11:14:54.131Z,70.77
2022-10-15T11:16:24.300Z,70.63
2022-10-15T11:17:45.115Z,70.08
2022-10-15T11:18:53.727Z,69.88
2022-10-15T11:21:22.635Z,69.11
2022-10-15T11:22:26.695Z,68.71
2022-10-15T11:23:38.476Z,68.81
2022-10-15T11:24:49.087Z,68.57
2022-10-15T11:26:04.433Z,68.53
2022-10-15T11:27:22.375Z,68.56
2022-10-15T11:28:43.611Z,68.62
2022-10-15T11:30:14.945Z,68.89
2022-10-15T11:31:28.020Z,68.81
2022-10-15T11:32:54.569Z,68.57
2022-10-15T11:34:15.508Z,68.48
2022-10-15T11:35:51.566Z,68.72
2022-10-15T11:37:05.554Z,68.87
2022-10-15T11:38:14.134Z,68.56
2022-10-15T11:39:32.497Z,68.21
2022-10-15T11:40:44.250Z,68.33
2022-10-15T11:42:05.537Z,68.29
2022-10-15T11:43:34.786Z,68.15
2022-10-15T11:44:40.386Z,68.42
2022-10-15T11:45:48.770Z,68.39
2022-10-15T11:47:01.165Z,68.42
2022-10-15T11:48:08.655Z,68.42
2022-10-15T11:49:23.292Z,68.42
2022-10-15T11:50:45.731Z,68.52
2022-10-15T11:52:07.236Z,68.79
2022-10-15T11:53:28.362Z,68.79
2022-10-15T11:54:40.431Z,68.64
2022-10-15T11:56:04.859Z,68.38
2022-10-15T11:57:10.756Z,67.97
2022-10-15T11:58:45.970Z,67.81
2022-10-15T11:59:57.164Z,67.80
2022-10-15T12:01:11.904Z,67.84
2022-10-15T12:02:20.835Z,68.06
2022-10-15T12:03:26.010Z,68.01
2022-10-15T12:04:31.773Z,68.06
2022-10-15T12:05:39.033Z,68.11
2022-10-15T12:06:45.355Z,68.28
2022-10-15T12:07:49.344Z,68.28
2022-10-15T12:08:56.841Z,68.41
2022-10-15T12:10:20.151Z,68.38
2022-10-15T12:11:49.231Z,68.43
2022-10-15T12:13:05.480Z,68.48
2022-10-15T12:14:17.177Z,68.51
2022-10-15T12:15:26.491Z,68.36
2022-10-15T12:16:48.292Z,68.16
2022-10-15T12:18:14.247Z,68.16
2022-10-15T12:19:29.409Z,68.12
2022-10-15T12:20:32.721Z,68.23
2022-10-15T12:21:40.165Z,68.25
2022-10-15T12:22:51.977Z,68.32
2022-10-15T12:23:54.834Z,68.34
2022-10-15T12:24:57.860Z,67.97
2022-10-15T12:26:02.992Z,67.82
2022-10-15T12:27:21.619Z,67.47
2022-10-15T12:28:27.070Z,66.66
2022-10-15T12:29:29.973Z,66.03
2022-10-15T12:30:34.594Z,65.93
2022-10-15T12:31:50.810Z,65.95
2022-10-15T12:32:53.941Z,65.80
2022-10-15T12:33:57.536Z,65.99
2022-10-15T12:35:02.351Z,66.20
2022-10-15T12:36:20.673Z,66.40
2022-10-15T12:37:25.555Z,66.59
2022-10-15T12:38:30.299Z,66.42
2022-10-15T12:39:51.062Z,66.38
2022-10-15T12:41:06.355Z,65.09
2022-10-15T12:42:27.914Z,65.27
2022-10-15T12:43:31.855Z,64.88
2022-10-15T12:44:35.254Z,64.81
2022-10-15T12:45:48.264Z,64.82
2022-10-15T12:46:51.400Z,64.92
2022-10-15T12:47:56.136Z,65.07
2022-10-15T12:48:59.076Z,65.37
2022-10-15T12:50:05.959Z,64.82
2022-10-15T12:51:24.092Z,63.49
2022-10-15T12:52:45.756Z,62.91
2022-10-15T12:53:49.879Z,62.59
2022-10-15T12:54:52.879Z,62.85
2022-10-15T12:56:15.391Z,62.53
2022-10-15T12:57:30.869Z,61.50
2022-10-15T12:58:35.160Z,62.18
2022-10-15T12:59:44.211Z,61.30
2022-10-15T13:00:47.395Z,60.05
2022-10-15T13:01:52.147Z,59.08
2022-10-15T13:02:55.931Z,58.47
2022-10-15T13:03:59.695Z,58.92
2022-10-15T13:05:03.829Z,58.90
2022-10-15T13:06:13.432Z,59.65
2022-10-15T13:07:16.379Z,60.34
2022-10-15T13:08:23.843Z,60.59
2022-10-15T13:09:30.559Z,61.28
2022-10-15T13:10:48.761Z,61.97
2022-10-15T13:11:56.244Z,62.75
2022-10-15T13:13:13.639Z,63.69
2022-10-15T13:14:31.389Z,64.21
2022-10-15T13:15:35.332Z,64.62
2022-10-15T13:16:42.173Z,64.67
2022-10-15T13:17:45.965Z,64.67
2022-10-15T13:18:52.254Z,64.29
2022-10-15T13:19:59.906Z,64.34
2022-10-15T13:21:03.361Z,64.20
2022-10-15T13:22:19.400Z,63.99
2022-10-15T13:23:30.330Z,64.07
2022-10-15T13:24:43.310Z,64.20
2022-10-15T13:25:50.307Z,64.45
2022-10-15T13:26:55.380Z,64.54
2022-10-15T13:27:58.224Z,64.62
2022-10-15T13:29:01.156Z,64.74
2022-10-15T13:30:05.877Z,64.91
2022-10-15T13:31:15.103Z,65.04
2022-10-15T13:32:18.363Z,65.28
2022-10-15T13:33:21.558Z,65.50
2022-10-15T13:34:32.091Z,65.37
2022-10-15T13:35:38.447Z,65.31
2022-10-15T13:36:41.379Z,65.36
2022-10-15T13:37:45.017Z,65.62
2022-10-15T13:38:52.409Z,65.82
2022-10-15T13:39:55.495Z,65.78
2022-10-15T13:40:58.395Z,65.85
2022-10-15T13:42:14.635Z,66.19
2022-10-15T13:43:19.693Z,66.53
2022-10-15T13:44:23.337Z,66.62
2022-10-15T13:45:26.166Z,66.67
2022-10-15T13:46:38.723Z,66.96
2022-10-15T13:47:42.436Z,66.99
2022-10-15T13:48:45.319Z,67.16
2022-10-15T13:49:48.171Z,67.45
2022-10-15T13:51:00.898Z,67.31
2022-10-15T13:52:04.270Z,67.58
2022-10-15T13:53:09.931Z,67.72
2022-10-15T13:54:17.605Z,67.64
2022-10-15T13:55:30.879Z,67.65
2022-10-15T13:56:33.743Z,67.97
2022-10-15T13:57:36.628Z,67.93
2022-10-15T13:58:39.641Z,67.97
2022-10-15T13:59:44.361Z,67.99
2022-10-15T14:01:10.127Z,67.88
2022-10-15T14:02:14.251Z,67.98
2022-10-15T14:03:18.931Z,68.02
2022-10-15T14:04:23.329Z,68.07
2022-10-15T14:05:26.298Z,68.06
2022-10-15T14:06:30.990Z,68.01
2022-10-15T14:07:33.882Z,68.44
2022-10-15T14:08:36.869Z,68.26
2022-10-15T14:09:40.052Z,68.42
2022-10-15T14:10:43.128Z,68.61
2022-10-15T14:11:46.198Z,68.69
2022-10-15T14:12:52.070Z,68.79
2022-10-15T14:13:58.829Z,68.90
2022-10-15T14:15:20.340Z,68.79
2022-10-15T14:16:29.326Z,68.74
2022-10-15T14:17:32.112Z,68.70
2022-10-15T14:18:37.532Z,68.79
2022-10-15T14:19:40.365Z,68.89
2022-10-15T14:20:44.519Z,68.84
2022-10-15T14:21:51.818Z,68.80
2022-10-15T14:22:54.617Z,68.65
2022-10-15T14:24:23.509Z,68.46
2022-10-15T14:25:26.623Z,68.74
2022-10-15T14:26:30.203Z,68.72
2022-10-15T14:27:33.196Z,68.73
2022-10-15T14:28:37.465Z,68.28
2022-10-15T14:29:47.939Z,68.59
2022-10-15T14:30:51.198Z,68.60
2022-10-15T14:31:54.695Z,68.38